Terminal Aerodrome Forecast
Issued by NWS

Home | Current Version | Previous Version | Graphics & Text | Print | Product List | Glossary On
Versions: 1 2 3 4 5 6 7 8 9 10 11 12 13 14 15
371
FTUS43 KICT 260520
TAFRSL
TAF
KRSL 260520Z 2606/2706 01015G24KT P6SM OVC015
     FM261000 34016G23KT P6SM OVC025
     FM261500 34016G24KT P6SM SCT035 BKN150
     FM262300 34011KT P6SM SKC=

USA.gov is the U.S. government's official web portal to all federal, state and local government web resources and services.